createdAt,value
2018-05-26T00:00:15.358Z,15.67
2018-05-26T00:02:42.821Z,13.97
2018-05-26T00:05:10.275Z,14.03
2018-05-26T00:07:37.765Z,13.20
2018-05-26T00:10:05.969Z,12.27
2018-05-26T00:12:33.443Z,15.87
2018-05-26T00:15:00.902Z,15.23
2018-05-26T00:17:28.342Z,15.03
2018-05-26T00:19:55.793Z,16.43
2018-05-26T00:22:23.250Z,15.57
2018-05-26T00:24:50.707Z,15.83
2018-05-26T00:27:18.188Z,15.30
2018-05-26T00:29:45.642Z,13.93
2018-05-26T00:32:13.101Z,13.73
2018-05-26T00:34:40.554Z,12.53
2018-05-26T00:37:08.030Z,14.17
2018-05-26T00:39:35.495Z,14.30
2018-05-26T00:42:02.948Z,14.70
2018-05-26T00:44:30.407Z,17.27
2018-05-26T00:46:57.863Z,14.60
2018-05-26T00:49:25.343Z,17.27
2018-05-26T00:51:52.774Z,16.30
2018-05-26T00:54:20.234Z,17.10
2018-05-26T00:56:47.670Z,15.90
2018-05-26T00:59:15.151Z,15.77
2018-05-26T01:01:42.600Z,14.40
2018-05-26T01:04:10.067Z,14.83
2018-05-26T01:06:37.515Z,13.10
2018-05-26T01:09:04.975Z,12.93
2018-05-26T01:11:32.417Z,12.73
2018-05-26T01:13:59.882Z,12.50
2018-05-26T01:16:27.335Z,12.37
2018-05-26T01:18:54.814Z,13.73
2018-05-26T01:21:22.250Z,14.10
2018-05-26T01:23:49.709Z,13.90
2018-05-26T01:26:17.149Z,14.10
2018-05-26T01:28:44.605Z,13.70
2018-05-26T01:31:12.066Z,15.17
2018-05-26T01:33:39.523Z,12.10
2018-05-26T01:36:06.980Z,30.03
2018-05-26T01:38:34.436Z,12.60
2018-05-26T01:41:01.895Z,15.17
2018-05-26T01:43:29.349Z,12.73
2018-05-26T01:45:56.810Z,13.67
2018-05-26T01:48:24.265Z,13.53
2018-05-26T01:50:51.731Z,16.27
2018-05-26T01:53:19.202Z,17.30
2018-05-26T01:55:46.652Z,15.73
2018-05-26T01:58:14.097Z,16.83
2018-05-26T02:00:41.555Z,15.23
2018-05-26T02:03:09.006Z,16.40
2018-05-26T02:05:36.461Z,15.27
2018-05-26T02:08:03.901Z,14.87
2018-05-26T02:10:31.360Z,13.30
2018-05-26T02:12:58.801Z,13.17
2018-05-26T02:15:27.017Z,12.47
2018-05-26T02:17:54.520Z,11.93
2018-05-26T02:20:22.688Z,16.73
2018-05-26T02:22:50.126Z,15.50
2018-05-26T02:25:17.603Z,16.80
2018-05-26T02:27:45.042Z,16.83
2018-05-26T02:30:12.508Z,17.70
2018-05-26T02:32:39.955Z,17.27
2018-05-26T02:35:07.437Z,19.57
2018-05-26T02:37:34.882Z,18.97
2018-05-26T02:40:02.338Z,17.47
2018-05-26T02:42:29.770Z,18.17
2018-05-26T02:44:57.250Z,18.80
2018-05-26T02:47:24.714Z,14.40
2018-05-26T02:49:52.153Z,14.63
2018-05-26T02:52:19.610Z,14.63
2018-05-26T02:54:47.085Z,15.93
2018-05-26T02:57:14.539Z,17.47
2018-05-26T02:59:41.998Z,18.13
2018-05-26T03:02:09.455Z,18.70
2018-05-26T03:04:42.580Z,17.97
2018-05-26T03:07:15.811Z,17.43
2018-05-26T03:09:48.891Z,14.97
2018-05-26T03:12:21.950Z,14.07
2018-05-26T03:14:49.716Z,12.77
2018-05-26T03:17:20.958Z,11.77
2018-05-26T03:19:49.224Z,12.97
2018-05-26T03:22:17.437Z,14.30
2018-05-26T03:24:44.898Z,12.57
2018-05-26T03:27:13.115Z,12.30
2018-05-26T03:29:40.585Z,12.47
2018-05-26T03:32:08.815Z,13.97
2018-05-26T03:34:36.298Z,13.13
2018-05-26T03:37:03.750Z,13.27
2018-05-26T03:39:31.212Z,15.47
2018-05-26T03:41:58.666Z,15.13
2018-05-26T03:44:26.126Z,15.57
2018-05-26T03:46:53.584Z,16.77
2018-05-26T03:49:21.038Z,16.03
2018-05-26T03:51:48.495Z,15.97
2018-05-26T03:54:15.952Z,16.33
2018-05-26T03:56:55.151Z,18.20
2018-05-26T04:02:18.363Z,17.23
2018-05-26T04:04:45.818Z,17.13
2018-05-26T04:07:13.266Z,17.03
2018-05-26T04:09:40.730Z,16.77
2018-05-26T04:12:08.186Z,16.73
2018-05-26T04:14:35.645Z,17.03
2018-05-26T04:17:03.101Z,20.63
2018-05-26T04:19:30.556Z,20.57
2018-05-26T04:21:58.010Z,19.10
2018-05-26T04:24:25.470Z,20.87
2018-05-26T04:26:53.494Z,21.27
2018-05-26T04:29:21.711Z,19.87
2018-05-26T04:31:49.175Z,17.87
2018-05-26T04:34:16.630Z,17.30
2018-05-26T04:36:44.093Z,16.43
2018-05-26T04:39:11.529Z,17.13
2018-05-26T04:41:39.005Z,19.87
2018-05-26T04:44:06.453Z,20.73
2018-05-26T04:46:33.917Z,20.10
2018-05-26T04:49:01.378Z,19.33
2018-05-26T04:51:28.830Z,20.50
2018-05-26T04:53:56.291Z,19.13
2018-05-26T04:56:23.749Z,19.43
2018-05-26T04:58:51.206Z,18.47
2018-05-26T05:01:18.667Z,17.53
2018-05-26T05:03:46.118Z,16.73
2018-05-26T05:06:13.575Z,15.43
2018-05-26T05:08:41.032Z,14.87
2018-05-26T05:11:08.486Z,18.20
2018-05-26T05:13:35.941Z,19.23
2018-05-26T05:16:03.401Z,20.90
2018-05-26T05:18:30.854Z,21.80
2018-05-26T05:20:58.307Z,17.60
2018-05-26T05:23:25.774Z,20.47
2018-05-26T05:25:53.230Z,21.40
2018-05-26T05:28:20.681Z,20.13
2018-05-26T05:30:48.146Z,17.23
2018-05-26T05:33:15.598Z,17.73
2018-05-26T05:35:43.072Z,18.57
2018-05-26T05:38:10.523Z,18.53
2018-05-26T05:40:37.969Z,15.73
2018-05-26T05:43:05.425Z,15.50
2018-05-26T05:45:32.877Z,14.73
2018-05-26T05:48:00.343Z,16.73
2018-05-26T05:50:27.800Z,18.67
2018-05-26T05:52:55.257Z,18.50
2018-05-26T05:55:22.715Z,19.13
2018-05-26T05:57:50.173Z,18.43
2018-05-26T06:00:17.622Z,18.63
2018-05-26T06:02:45.082Z,17.53
2018-05-26T06:05:12.542Z,17.00
2018-05-26T06:07:40.002Z,18.37
2018-05-26T06:10:07.455Z,16.87
2018-05-26T06:12:34.905Z,15.57
2018-05-26T06:15:02.442Z,15.67
2018-05-26T06:17:29.825Z,16.17
2018-05-26T06:19:57.283Z,13.50
2018-05-26T06:22:24.739Z,16.00
2018-05-26T06:24:52.193Z,14.93
2018-05-26T06:27:19.660Z,14.87
2018-05-26T06:29:47.105Z,14.67
2018-05-26T06:32:14.577Z,14.63
2018-05-26T06:34:42.025Z,12.17
2018-05-26T06:37:09.482Z,11.97
2018-05-26T06:39:36.943Z,13.07
2018-05-26T06:42:04.410Z,13.17
2018-05-26T06:44:31.863Z,13.37
2018-05-26T06:46:59.305Z,13.57
2018-05-26T06:49:26.762Z,11.43
2018-05-26T06:51:54.240Z,12.53
2018-05-26T06:54:21.689Z,12.70
2018-05-26T06:56:49.164Z,12.17
2018-05-26T06:59:16.717Z,11.37
2018-05-26T07:01:44.162Z,10.53
2018-05-26T07:04:11.634Z,10.80
2018-05-26T07:06:39.124Z,10.20
2018-05-26T07:09:06.624Z,9.90
2018-05-26T07:11:34.091Z,9.60
2018-05-26T07:14:01.581Z,9.37
2018-05-26T07:16:29.063Z,9.53
2018-05-26T07:18:56.609Z,8.93
2018-05-26T07:21:24.842Z,9.83
2018-05-26T07:23:52.343Z,7.90
2018-05-26T07:26:20.580Z,8.70
2018-05-26T07:28:48.075Z,7.53
2018-05-26T07:31:16.298Z,7.67
2018-05-26T07:33:43.788Z,7.03
2018-05-26T07:36:11.245Z,6.63
2018-05-26T07:38:38.738Z,7.43
2018-05-26T07:41:06.262Z,5.90
2018-05-26T07:43:33.764Z,6.57
2018-05-26T07:46:01.237Z,7.07
2018-05-26T07:48:28.711Z,6.20
2018-05-26T07:50:56.163Z,6.33
2018-05-26T07:53:23.626Z,6.40
2018-05-26T07:55:51.103Z,6.30
2018-05-26T07:58:18.647Z,6.47
2018-05-26T08:00:46.820Z,6.13
2018-05-26T08:03:14.299Z,6.43
2018-05-26T08:05:41.768Z,6.37
2018-05-26T08:08:09.246Z,7.63
2018-05-26T08:10:36.706Z,6.73
2018-05-26T08:13:04.177Z,6.37
2018-05-26T08:15:31.629Z,8.03
2018-05-26T08:17:59.127Z,6.30
2018-05-26T08:20:26.611Z,6.50
2018-05-26T08:22:54.076Z,5.60
2018-05-26T08:25:22.348Z,5.90
2018-05-26T08:27:49.801Z,6.57
2018-05-26T08:30:17.275Z,6.23
2018-05-26T08:32:45.511Z,5.90
2018-05-26T08:35:12.978Z,5.87
2018-05-26T08:37:40.461Z,5.80
2018-05-26T08:40:08.699Z,6.10
2018-05-26T08:42:36.170Z,6.10
2018-05-26T08:45:03.650Z,5.93
2018-05-26T08:47:31.118Z,5.50
2018-05-26T08:49:59.325Z,5.30
2018-05-26T08:52:26.823Z,4.83
2018-05-26T08:54:54.340Z,5.37
2018-05-26T08:57:22.536Z,5.20
2018-05-26T08:59:50.034Z,5.00
2018-05-26T09:02:18.297Z,5.67
2018-05-26T09:04:45.785Z,5.30
2018-05-26T09:07:13.263Z,4.80
2018-05-26T09:09:40.739Z,4.50
2018-05-26T09:12:08.194Z,5.33
2018-05-26T09:14:35.678Z,4.70
2018-05-26T09:17:03.134Z,4.63
2018-05-26T09:19:30.607Z,5.03
2018-05-26T09:21:58.822Z,4.03
2018-05-26T09:24:26.291Z,5.37
2018-05-26T09:26:53.733Z,4.67
2018-05-26T09:29:21.207Z,4.40
2018-05-26T09:31:48.667Z,4.67
2018-05-26T09:34:16.118Z,4.67
2018-05-26T09:36:43.562Z,4.43
2018-05-26T09:39:11.019Z,4.83
2018-05-26T09:41:38.478Z,4.30
2018-05-26T09:44:05.947Z,4.80
2018-05-26T09:46:33.428Z,4.97
2018-05-26T09:49:00.882Z,4.57
2018-05-26T09:51:28.321Z,4.57
2018-05-26T09:53:55.775Z,4.60
2018-05-26T09:56:23.218Z,5.20
2018-05-26T09:58:50.678Z,5.00
2018-05-26T10:01:18.130Z,5.80
2018-05-26T10:03:45.588Z,4.73
2018-05-26T10:06:13.045Z,4.50
2018-05-26T10:08:40.578Z,4.60
2018-05-26T10:11:08.039Z,4.90
2018-05-26T10:13:36.246Z,5.40
2018-05-26T10:16:03.726Z,4.70
2018-05-26T10:18:31.187Z,4.30
2018-05-26T10:20:58.642Z,3.80
2018-05-26T10:23:26.092Z,4.33
2018-05-26T10:25:53.542Z,4.00
2018-05-26T10:28:20.986Z,3.93
2018-05-26T10:30:48.433Z,4.10
2018-05-26T10:33:15.900Z,3.77
2018-05-26T10:35:43.377Z,4.30
2018-05-26T10:38:10.868Z,4.23
2018-05-26T10:40:38.283Z,3.87
2018-05-26T10:43:05.733Z,3.27
2018-05-26T10:45:39.220Z,4.33
2018-05-26T10:48:06.673Z,4.10
2018-05-26T10:50:34.131Z,4.00
2018-05-26T10:53:01.588Z,4.07
2018-05-26T10:55:29.044Z,4.03
2018-05-26T10:57:56.502Z,3.57
2018-05-26T11:00:23.960Z,3.20
2018-05-26T11:02:51.415Z,3.80
2018-05-26T11:05:18.872Z,3.53
2018-05-26T11:07:46.329Z,4.03
2018-05-26T11:10:13.785Z,3.53
2018-05-26T11:12:41.241Z,3.40
2018-05-26T11:15:08.704Z,3.60
2018-05-26T11:17:36.157Z,3.47
2018-05-26T11:20:03.614Z,3.83
2018-05-26T11:22:31.070Z,3.47
2018-05-26T11:24:58.526Z,4.13
2018-05-26T11:27:25.970Z,3.80
2018-05-26T11:29:54.193Z,3.57
2018-05-26T11:32:21.638Z,3.53
2018-05-26T11:34:49.091Z,3.80
2018-05-26T11:37:16.532Z,3.47
2018-05-26T11:39:43.981Z,4.50
2018-05-26T11:42:11.418Z,4.70
2018-05-26T11:44:38.864Z,3.07
2018-05-26T11:47:06.306Z,3.63
2018-05-26T11:49:33.761Z,3.67
2018-05-26T11:52:01.202Z,3.50
2018-05-26T11:54:28.647Z,3.27
2018-05-26T11:56:56.100Z,3.03
2018-05-26T11:59:23.538Z,4.43
2018-05-26T12:01:51.016Z,4.10
2018-05-26T12:04:18.452Z,3.43
2018-05-26T12:06:45.911Z,3.20
2018-05-26T12:09:13.369Z,4.00
2018-05-26T12:11:40.826Z,2.60
2018-05-26T12:14:08.282Z,2.73
2018-05-26T12:16:35.722Z,2.67
2018-05-26T12:19:03.948Z,2.60
2018-05-26T12:21:31.383Z,2.67
2018-05-26T12:23:58.823Z,3.00
2018-05-26T12:26:27.038Z,2.73
2018-05-26T12:28:54.491Z,3.00
2018-05-26T12:31:21.933Z,3.30
2018-05-26T12:33:49.382Z,3.10
2018-05-26T12:36:16.851Z,3.10
2018-05-26T12:38:44.299Z,3.03
2018-05-26T12:41:11.755Z,4.83
2018-05-26T12:43:39.181Z,4.50
2018-05-26T12:46:06.630Z,4.40
2018-05-26T12:48:34.062Z,3.53
2018-05-26T12:51:01.506Z,3.67
2018-05-26T12:53:28.962Z,3.17
2018-05-26T12:55:56.402Z,3.83
2018-05-26T12:58:23.830Z,3.40
2018-05-26T13:00:52.056Z,3.40
2018-05-26T13:03:19.494Z,3.00
2018-05-26T13:05:46.945Z,3.70
2018-05-26T13:08:14.377Z,3.63
2018-05-26T13:10:42.585Z,3.53
2018-05-26T13:13:10.019Z,3.43
2018-05-26T13:15:37.479Z,4.13
2018-05-26T13:18:04.943Z,3.83
2018-05-26T13:20:32.397Z,3.20
2018-05-26T13:22:59.839Z,5.50
2018-05-26T13:25:28.049Z,20.67
2018-05-26T13:27:55.501Z,16.57
2018-05-26T13:30:22.938Z,4.03
2018-05-26T13:32:50.389Z,4.03
2018-05-26T13:35:17.895Z,3.90
2018-05-26T13:37:46.066Z,3.93
2018-05-26T13:40:13.509Z,4.27
2018-05-26T13:42:40.963Z,6.20
2018-05-26T13:45:08.415Z,3.97
2018-05-26T13:47:35.885Z,3.60
2018-05-26T13:50:03.341Z,4.30
2018-05-26T13:52:30.802Z,4.77
2018-05-26T13:54:58.256Z,3.87
2018-05-26T13:57:25.697Z,4.50
2018-05-26T13:59:53.120Z,4.07
2018-05-26T14:02:20.563Z,3.70
2018-05-26T14:04:47.996Z,4.20
2018-05-26T14:07:15.468Z,3.67
2018-05-26T14:09:42.960Z,4.00
2018-05-26T14:12:11.165Z,4.23
2018-05-26T14:14:38.607Z,4.90
2018-05-26T14:17:06.058Z,4.87
2018-05-26T14:19:34.259Z,4.70
2018-05-26T14:22:01.709Z,5.60
2018-05-26T14:24:32.066Z,5.50
2018-05-26T14:26:59.524Z,5.60
2018-05-26T14:29:26.945Z,5.10
2018-05-26T14:31:54.389Z,5.33
2018-05-26T14:34:21.831Z,4.90
2018-05-26T14:36:49.280Z,4.80
2018-05-26T14:39:17.479Z,4.97
2018-05-26T14:41:44.938Z,4.77
2018-05-26T14:44:12.379Z,4.60
2018-05-26T14:46:40.600Z,5.10
2018-05-26T14:49:08.038Z,4.93
2018-05-26T14:51:35.473Z,5.17
2018-05-26T14:54:03.690Z,4.77
2018-05-26T14:56:31.127Z,5.33
2018-05-26T14:58:58.574Z,5.13
2018-05-26T15:01:26.024Z,5.83
2018-05-26T15:03:54.229Z,5.20
2018-05-26T15:06:21.656Z,4.50
2018-05-26T15:08:49.103Z,4.53
2018-05-26T15:11:17.299Z,5.10
2018-05-26T15:13:44.748Z,4.97
2018-05-26T15:16:12.193Z,5.73
2018-05-26T15:18:40.410Z,4.90
2018-05-26T15:21:07.849Z,4.43
2018-05-26T15:23:35.314Z,4.37
2018-05-26T15:26:02.749Z,4.90
2018-05-26T15:28:30.198Z,4.80
2018-05-26T15:30:58.402Z,4.97
2018-05-26T15:33:25.851Z,5.17
2018-05-26T15:35:54.056Z,5.03
2018-05-26T15:38:21.514Z,6.90
2018-05-26T15:40:48.950Z,50.23
2018-05-26T15:43:16.410Z,4.80
2018-05-26T15:45:43.859Z,4.83
2018-05-26T15:48:11.299Z,5.20
2018-05-26T15:50:38.738Z,4.80
2018-05-26T15:53:06.954Z,4.80
2018-05-26T15:55:34.376Z,4.27
2018-05-26T15:58:02.591Z,4.63
2018-05-26T16:00:30.022Z,4.60
2018-05-26T16:02:57.483Z,4.73
2018-05-26T16:05:24.925Z,4.90
2018-05-26T16:07:53.139Z,5.13
2018-05-26T16:10:20.581Z,4.97
2018-05-26T16:12:48.023Z,4.73
2018-05-26T16:15:15.498Z,5.23
2018-05-26T16:17:42.962Z,5.10
2018-05-26T16:20:10.409Z,5.47
2018-05-26T16:22:37.834Z,5.60
2018-05-26T16:25:06.062Z,5.37
2018-05-26T16:27:33.498Z,4.60
2018-05-26T16:30:00.957Z,5.30
2018-05-26T16:32:28.380Z,5.30
2018-05-26T16:34:56.659Z,5.20
2018-05-26T16:37:24.865Z,5.17
2018-05-26T16:39:52.325Z,5.17
2018-05-26T16:42:19.745Z,4.53
2018-05-26T16:44:47.957Z,5.00
2018-05-26T16:47:15.397Z,5.30
2018-05-26T16:49:42.863Z,4.97
2018-05-26T16:52:10.297Z,5.53
2018-05-26T16:54:38.519Z,5.40
2018-05-26T16:57:05.953Z,4.97
2018-05-26T16:59:33.413Z,5.43
2018-05-26T17:02:00.833Z,5.40
2018-05-26T17:04:29.050Z,4.80
2018-05-26T17:06:56.481Z,5.03
2018-05-26T17:09:23.969Z,5.20
2018-05-26T17:11:51.407Z,5.03
2018-05-26T17:14:18.851Z,5.43
2018-05-26T17:16:46.302Z,5.20
2018-05-26T17:19:13.744Z,5.77
2018-05-26T17:21:41.953Z,4.40
2018-05-26T17:24:09.391Z,5.10
2018-05-26T17:26:37.598Z,5.50
2018-05-26T17:29:05.040Z,5.20
2018-05-26T17:31:32.477Z,4.97
2018-05-26T17:34:00.762Z,4.67
2018-05-26T17:36:28.955Z,5.17
2018-05-26T17:38:56.404Z,4.90
2018-05-26T17:41:23.845Z,4.90
2018-05-26T17:43:52.052Z,5.00
2018-05-26T17:46:19.493Z,5.37
2018-05-26T17:48:46.932Z,5.10
2018-05-26T17:51:15.137Z,4.80
2018-05-26T17:53:42.578Z,5.47
2018-05-26T17:56:10.017Z,5.07
2018-05-26T17:58:38.217Z,4.70
2018-05-26T18:01:05.667Z,4.90
2018-05-26T18:03:33.101Z,7.30
2018-05-26T18:06:01.327Z,5.97
2018-05-26T18:08:28.797Z,4.70
2018-05-26T18:10:56.213Z,4.77
2018-05-26T18:13:23.649Z,5.30
2018-05-26T18:15:51.105Z,5.20
2018-05-26T18:18:18.533Z,5.00
2018-05-26T18:20:46.005Z,5.00
2018-05-26T18:23:13.461Z,4.13
2018-05-26T18:25:40.923Z,5.00
2018-05-26T18:28:08.369Z,5.03
2018-05-26T18:30:35.834Z,4.83
2018-05-26T18:33:03.285Z,5.23
2018-05-26T18:35:30.754Z,5.90
2018-05-26T18:37:58.202Z,5.20
2018-05-26T18:40:25.667Z,5.27
2018-05-26T18:42:53.118Z,5.73
2018-05-26T18:45:20.570Z,5.60
2018-05-26T18:47:48.022Z,5.63
2018-05-26T18:50:15.470Z,6.00
2018-05-26T18:52:42.917Z,5.80
2018-05-26T18:55:10.368Z,5.77
2018-05-26T18:57:37.822Z,5.77
2018-05-26T19:00:05.277Z,5.70
2018-05-26T19:02:32.713Z,5.80
2018-05-26T19:05:00.158Z,5.67
2018-05-26T19:07:28.368Z,5.97
2018-05-26T19:09:55.843Z,6.70
2018-05-26T19:12:23.282Z,6.53
2018-05-26T19:14:50.736Z,7.03
2018-05-26T19:17:18.177Z,6.30
2018-05-26T19:19:45.622Z,7.07
2018-05-26T19:22:13.056Z,6.53
2018-05-26T19:24:40.503Z,6.97
2018-05-26T19:27:07.959Z,7.53
2018-05-26T19:29:35.419Z,6.70
2018-05-26T19:32:02.877Z,7.13
2018-05-26T19:34:30.330Z,6.20
2018-05-26T19:36:57.832Z,7.13
2018-05-26T19:39:25.234Z,7.87
2018-05-26T19:41:52.673Z,7.43
2018-05-26T19:44:20.140Z,8.40
2018-05-26T19:46:47.585Z,8.87
2018-05-26T19:49:15.029Z,8.00
2018-05-26T19:51:42.469Z,7.87
2018-05-26T19:54:09.910Z,7.40
2018-05-26T19:56:38.121Z,7.77
2018-05-26T19:59:05.561Z,7.70
2018-05-26T20:01:32.997Z,8.83
2018-05-26T20:04:01.225Z,9.10
2018-05-26T20:06:28.691Z,9.33
2018-05-26T20:08:56.135Z,8.30
2018-05-26T20:11:23.582Z,9.00
2018-05-26T20:13:51.025Z,8.67
2018-05-26T20:16:18.474Z,8.50
2018-05-26T20:18:45.913Z,8.47
2018-05-26T20:21:14.143Z,8.50
2018-05-26T20:23:41.583Z,9.10
2018-05-26T20:26:09.045Z,10.87
2018-05-26T20:28:36.496Z,8.90
2018-05-26T20:31:03.954Z,9.67
2018-05-26T20:33:31.408Z,10.03
2018-05-26T20:35:58.849Z,10.87
2018-05-26T20:38:26.291Z,10.07
2018-05-26T20:40:54.527Z,11.10
2018-05-26T20:43:21.969Z,10.47
2018-05-26T20:45:49.430Z,10.13
2018-05-26T20:48:16.889Z,10.13
2018-05-26T20:50:44.351Z,11.30
2018-05-26T20:53:11.809Z,9.70
2018-05-26T20:55:39.283Z,9.57
2018-05-26T20:58:06.734Z,9.30
2018-05-26T21:00:34.211Z,11.70
2018-05-26T21:03:01.667Z,12.87
2018-05-26T21:05:29.122Z,12.27
2018-05-26T21:07:56.573Z,10.93
2018-05-26T21:10:24.029Z,11.10
2018-05-26T21:12:51.501Z,10.17
2018-05-26T21:15:19.729Z,10.57
2018-05-26T21:17:47.189Z,10.87
2018-05-26T21:20:14.635Z,10.90
2018-05-26T21:22:42.118Z,11.23
2018-05-26T21:25:09.563Z,10.20
2018-05-26T21:27:37.087Z,10.73
2018-05-26T21:30:04.495Z,10.57
2018-05-26T21:32:31.968Z,10.07
2018-05-26T21:34:59.422Z,10.20
2018-05-26T21:37:26.902Z,10.93
2018-05-26T21:39:54.350Z,11.93
2018-05-26T21:42:21.793Z,11.20
2018-05-26T21:44:49.251Z,11.33
2018-05-26T21:47:16.706Z,11.17
2018-05-26T21:49:44.161Z,10.90
2018-05-26T21:52:11.645Z,10.80
2018-05-26T21:54:39.865Z,10.10
2018-05-26T21:57:07.322Z,10.07
2018-05-26T21:59:34.778Z,10.70
2018-05-26T22:02:02.254Z,9.93
2018-05-26T22:04:29.710Z,9.87
2018-05-26T22:06:57.171Z,10.83
2018-05-26T22:09:24.639Z,10.57
2018-05-26T22:11:52.092Z,11.27
2018-05-26T22:14:19.572Z,10.60
2018-05-26T22:16:47.013Z,10.40
2018-05-26T22:19:14.465Z,10.40
2018-05-26T22:21:41.941Z,11.00
2018-05-26T22:24:09.394Z,10.40
2018-05-26T22:26:36.834Z,10.87
2018-05-26T22:29:04.298Z,10.77
2018-05-26T22:31:31.733Z,10.30
2018-05-26T22:33:59.199Z,10.77
2018-05-26T22:36:26.643Z,11.17
2018-05-26T22:38:54.097Z,11.57
2018-05-26T22:41:21.564Z,10.63
2018-05-26T22:43:49.023Z,11.63
2018-05-26T22:46:16.502Z,11.63
2018-05-26T22:48:43.980Z,10.37
2018-05-26T22:51:12.238Z,11.37
2018-05-26T22:53:39.743Z,11.67
2018-05-26T22:56:07.225Z,11.43
2018-05-26T22:58:34.698Z,11.80
2018-05-26T23:01:02.182Z,10.83
2018-05-26T23:03:30.450Z,12.50
2018-05-26T23:05:57.905Z,12.63
2018-05-26T23:08:25.413Z,11.87
2018-05-26T23:10:52.881Z,12.20
2018-05-26T23:13:20.387Z,11.93
2018-05-26T23:15:48.641Z,12.83
2018-05-26T23:18:16.110Z,11.93
2018-05-26T23:20:43.567Z,12.13
2018-05-26T23:23:11.038Z,11.00
2018-05-26T23:25:39.298Z,10.93
2018-05-26T23:28:06.775Z,10.83
2018-05-26T23:30:35.039Z,9.93
2018-05-26T23:33:03.724Z,10.00
2018-05-26T23:35:31.185Z,10.87
2018-05-26T23:37:58.701Z,10.23
2018-05-26T23:40:26.906Z,10.07
2018-05-26T23:42:54.378Z,11.27
2018-05-26T23:45:22.618Z,10.90
2018-05-26T23:47:50.103Z,10.90
2018-05-26T23:50:17.561Z,12.20
2018-05-26T23:52:45.068Z,10.97
2018-05-26T23:55:12.559Z,11.00
2018-05-26T23:57:40.026Z,10.70
